sensor_id;sensor_type;location;lat;lon;timestamp;P1;durP1;ratioP1;P2;durP2;ratioP2
1829;SDS011;914;48.118;11.600;2022-08-21T00:00:05;6.30;;;3.10;;
1829;SDS011;914;48.118;11.600;2022-08-21T00:02:33;3.30;;;3.00;;
1829;SDS011;914;48.118;11.600;2022-08-21T00:04:59;3.73;;;3.10;;
1829;SDS011;914;48.118;11.600;2022-08-21T00:07:25;5.00;;;3.17;;
1829;SDS011;914;48.118;11.600;2022-08-21T00:09:51;3.47;;;3.17;;
1829;SDS011;914;48.118;11.600;2022-08-21T00:12:17;3.80;;;3.03;;
1829;SDS011;914;48.118;11.600;2022-08-21T00:14:43;3.43;;;3.20;;
1829;SDS011;914;48.118;11.600;2022-08-21T00:17:09;3.50;;;3.20;;
1829;SDS011;914;48.118;11.600;2022-08-21T00:19:35;4.50;;;3.10;;
1829;SDS011;914;48.118;11.600;2022-08-21T00:22:00;3.70;;;2.90;;
1829;SDS011;914;48.118;11.600;2022-08-21T00:24:26;5.07;;;2.93;;
1829;SDS011;914;48.118;11.600;2022-08-21T00:26:52;3.47;;;3.17;;
1829;SDS011;914;48.118;11.600;2022-08-21T00:29:18;3.40;;;3.10;;
1829;SDS011;914;48.118;11.600;2022-08-21T00:31:44;3.07;;;2.77;;
1829;SDS011;914;48.118;11.600;2022-08-21T00:34:10;3.47;;;2.90;;
1829;SDS011;914;48.118;11.600;2022-08-21T00:36:38;4.73;;;3.20;;
1829;SDS011;914;48.118;11.600;2022-08-21T00:39:04;2.63;;;2.43;;
1829;SDS011;914;48.118;11.600;2022-08-21T00:41:32;3.80;;;3.10;;
1829;SDS011;914;48.118;11.600;2022-08-21T00:43:58;3.90;;;3.00;;
1829;SDS011;914;48.118;11.600;2022-08-21T00:46:24;3.03;;;2.83;;
1829;SDS011;914;48.118;11.600;2022-08-21T00:48:50;2.77;;;2.57;;
1829;SDS011;914;48.118;11.600;2022-08-21T00:51:21;4.17;;;3.17;;
1829;SDS011;914;48.118;11.600;2022-08-21T00:53:51;3.87;;;3.00;;
1829;SDS011;914;48.118;11.600;2022-08-21T00:56:20;2.90;;;2.67;;
1829;SDS011;914;48.118;11.600;2022-08-21T00:58:48;3.20;;;2.90;;
1829;SDS011;914;48.118;11.600;2022-08-21T01:01:15;3.03;;;2.77;;
1829;SDS011;914;48.118;11.600;2022-08-21T01:03:41;2.97;;;2.67;;
1829;SDS011;914;48.118;11.600;2022-08-21T01:06:07;2.73;;;2.53;;
1829;SDS011;914;48.118;11.600;2022-08-21T01:08:33;2.80;;;2.60;;
1829;SDS011;914;48.118;11.600;2022-08-21T01:11:00;2.50;;;2.30;;
1829;SDS011;914;48.118;11.600;2022-08-21T01:13:27;2.80;;;2.60;;
1829;SDS011;914;48.118;11.600;2022-08-21T01:15:56;2.70;;;2.50;;
1829;SDS011;914;48.118;11.600;2022-08-21T01:18:24;3.90;;;2.60;;
1829;SDS011;914;48.118;11.600;2022-08-21T01:23:39;2.40;;;2.30;;
1829;SDS011;914;48.118;11.600;2022-08-21T01:26:08;2.57;;;2.37;;
1829;SDS011;914;48.118;11.600;2022-08-21T01:28:37;3.33;;;2.60;;
1829;SDS011;914;48.118;11.600;2022-08-21T01:31:06;3.40;;;2.60;;
1829;SDS011;914;48.118;11.600;2022-08-21T01:33:33;3.43;;;2.53;;
1829;SDS011;914;48.118;11.600;2022-08-21T01:35:59;3.00;;;2.73;;
1829;SDS011;914;48.118;11.600;2022-08-21T01:38:25;3.13;;;2.80;;
1829;SDS011;914;48.118;11.600;2022-08-21T01:40:50;3.60;;;2.50;;
1829;SDS011;914;48.118;11.600;2022-08-21T01:43:16;5.20;;;2.40;;
1829;SDS011;914;48.118;11.600;2022-08-21T01:45:41;3.30;;;2.53;;
1829;SDS011;914;48.118;11.600;2022-08-21T01:48:07;5.30;;;2.60;;
1829;SDS011;914;48.118;11.600;2022-08-21T01:50:33;3.30;;;3.00;;
1829;SDS011;914;48.118;11.600;2022-08-21T01:52:59;3.90;;;2.70;;
1829;SDS011;914;48.118;11.600;2022-08-21T01:55:24;2.67;;;2.47;;
1829;SDS011;914;48.118;11.600;2022-08-21T01:57:50;3.87;;;2.93;;
1829;SDS011;914;48.118;11.600;2022-08-21T02:00:17;4.27;;;2.53;;
1829;SDS011;914;48.118;11.600;2022-08-21T02:02:45;2.80;;;2.60;;
1829;SDS011;914;48.118;11.600;2022-08-21T02:05:11;2.60;;;2.40;;
1829;SDS011;914;48.118;11.600;2022-08-21T02:10:04;3.30;;;2.50;;
1829;SDS011;914;48.118;11.600;2022-08-21T02:12:32;3.03;;;2.63;;
1829;SDS011;914;48.118;11.600;2022-08-21T02:14:58;2.90;;;2.70;;
1829;SDS011;914;48.118;11.600;2022-08-21T02:17:23;3.00;;;2.80;;
1829;SDS011;914;48.118;11.600;2022-08-21T02:19:49;2.53;;;2.40;;
1829;SDS011;914;48.118;11.600;2022-08-21T02:22:15;3.17;;;2.53;;
1829;SDS011;914;48.118;11.600;2022-08-21T02:24:40;4.13;;;2.33;;
1829;SDS011;914;48.118;11.600;2022-08-21T02:27:06;3.30;;;2.23;;
1829;SDS011;914;48.118;11.600;2022-08-21T02:29:32;3.27;;;2.47;;
1829;SDS011;914;48.118;11.600;2022-08-21T02:31:57;2.80;;;2.60;;
1829;SDS011;914;48.118;11.600;2022-08-21T02:34:23;4.60;;;2.60;;
1829;SDS011;914;48.118;11.600;2022-08-21T02:36:49;2.80;;;2.60;;
1829;SDS011;914;48.118;11.600;2022-08-21T02:39:15;2.50;;;2.30;;
1829;SDS011;914;48.118;11.600;2022-08-21T02:41:41;3.10;;;2.80;;
1829;SDS011;914;48.118;11.600;2022-08-21T02:44:06;2.70;;;2.60;;
1829;SDS011;914;48.118;11.600;2022-08-21T02:46:32;2.83;;;2.63;;
1829;SDS011;914;48.118;11.600;2022-08-21T02:48:57;3.07;;;2.77;;
1829;SDS011;914;48.118;11.600;2022-08-21T02:51:23;3.23;;;2.93;;
1829;SDS011;914;48.118;11.600;2022-08-21T02:53:50;2.53;;;2.43;;
1829;SDS011;914;48.118;11.600;2022-08-21T02:56:17;2.97;;;2.73;;
1829;SDS011;914;48.118;11.600;2022-08-21T02:58:45;3.40;;;2.60;;
1829;SDS011;914;48.118;11.600;2022-08-21T03:01:13;4.03;;;3.10;;
1829;SDS011;914;48.118;11.600;2022-08-21T03:03:41;4.50;;;3.10;;
1829;SDS011;914;48.118;11.600;2022-08-21T03:06:12;4.90;;;2.83;;
1829;SDS011;914;48.118;11.600;2022-08-21T03:08:40;3.73;;;3.00;;
1829;SDS011;914;48.118;11.600;2022-08-21T03:11:14;3.40;;;3.03;;
1829;SDS011;914;48.118;11.600;2022-08-21T03:13:40;3.20;;;2.83;;
1829;SDS011;914;48.118;11.600;2022-08-21T03:16:06;3.20;;;3.00;;
1829;SDS011;914;48.118;11.600;2022-08-21T03:18:32;3.63;;;3.33;;
1829;SDS011;914;48.118;11.600;2022-08-21T03:20:58;3.30;;;3.00;;
1829;SDS011;914;48.118;11.600;2022-08-21T03:23:24;3.80;;;3.13;;
1829;SDS011;914;48.118;11.600;2022-08-21T03:25:49;5.23;;;3.00;;
1829;SDS011;914;48.118;11.600;2022-08-21T03:28:18;3.30;;;3.00;;
1829;SDS011;914;48.118;11.600;2022-08-21T03:30:47;3.50;;;3.10;;
1829;SDS011;914;48.118;11.600;2022-08-21T03:33:14;3.27;;;2.97;;
1829;SDS011;914;48.118;11.600;2022-08-21T03:35:44;3.50;;;3.20;;
1829;SDS011;914;48.118;11.600;2022-08-21T03:38:12;4.03;;;3.20;;
1829;SDS011;914;48.118;11.600;2022-08-21T03:40:38;3.40;;;3.20;;
1829;SDS011;914;48.118;11.600;2022-08-21T03:43:04;4.07;;;2.93;;
1829;SDS011;914;48.118;11.600;2022-08-21T03:45:34;4.63;;;3.17;;
1829;SDS011;914;48.118;11.600;2022-08-21T03:48:01;3.83;;;3.03;;
1829;SDS011;914;48.118;11.600;2022-08-21T03:50:30;3.60;;;3.30;;
1829;SDS011;914;48.118;11.600;2022-08-21T03:52:59;3.37;;;3.03;;
1829;SDS011;914;48.118;11.600;2022-08-21T03:55:25;3.20;;;2.90;;
1829;SDS011;914;48.118;11.600;2022-08-21T03:57:51;3.43;;;3.13;;
1829;SDS011;914;48.118;11.600;2022-08-21T04:00:18;3.60;;;3.30;;
1829;SDS011;914;48.118;11.600;2022-08-21T04:02:45;3.13;;;2.90;;
1829;SDS011;914;48.118;11.600;2022-08-21T04:05:12;3.20;;;3.00;;
1829;SDS011;914;48.118;11.600;2022-08-21T04:07:39;2.90;;;2.70;;
1829;SDS011;914;48.118;11.600;2022-08-21T04:10:05;4.30;;;3.17;;
1829;SDS011;914;48.118;11.600;2022-08-21T04:12:32;3.40;;;3.10;;
1829;SDS011;914;48.118;11.600;2022-08-21T04:14:58;3.73;;;2.83;;
1829;SDS011;914;48.118;11.600;2022-08-21T04:17:23;3.37;;;3.07;;
1829;SDS011;914;48.118;11.600;2022-08-21T04:19:49;2.87;;;2.67;;
1829;SDS011;914;48.118;11.600;2022-08-21T04:22:15;3.17;;;2.90;;
1829;SDS011;914;48.118;11.600;2022-08-21T04:24:41;3.23;;;3.03;;
1829;SDS011;914;48.118;11.600;2022-08-21T04:27:06;3.07;;;2.87;;
1829;SDS011;914;48.118;11.600;2022-08-21T04:29:32;3.40;;;2.90;;
1829;SDS011;914;48.118;11.600;2022-08-21T04:31:57;5.17;;;3.10;;
1829;SDS011;914;48.118;11.600;2022-08-21T04:34:23;4.83;;;3.00;;
1829;SDS011;914;48.118;11.600;2022-08-21T04:36:49;3.07;;;2.87;;
1829;SDS011;914;48.118;11.600;2022-08-21T04:39:14;4.30;;;3.13;;
1829;SDS011;914;48.118;11.600;2022-08-21T04:41:40;2.90;;;2.70;;
1829;SDS011;914;48.118;11.600;2022-08-21T04:44:06;3.57;;;3.13;;
1829;SDS011;914;48.118;11.600;2022-08-21T04:46:33;5.47;;;3.00;;
1829;SDS011;914;48.118;11.600;2022-08-21T04:48:59;4.93;;;3.40;;
1829;SDS011;914;48.118;11.600;2022-08-21T04:51:25;3.07;;;2.87;;
1829;SDS011;914;48.118;11.600;2022-08-21T04:56:35;3.23;;;2.93;;
1829;SDS011;914;48.118;11.600;2022-08-21T04:59:10;3.40;;;3.10;;
1829;SDS011;914;48.118;11.600;2022-08-21T05:01:58;3.50;;;3.20;;
1829;SDS011;914;48.118;11.600;2022-08-21T05:04:26;6.43;;;3.20;;
1829;SDS011;914;48.118;11.600;2022-08-21T05:06:56;5.17;;;3.07;;
1829;SDS011;914;48.118;11.600;2022-08-21T05:09:24;4.03;;;3.30;;
1829;SDS011;914;48.118;11.600;2022-08-21T05:11:50;3.00;;;2.80;;
1829;SDS011;914;48.118;11.600;2022-08-21T05:14:17;4.73;;;3.37;;
1829;SDS011;914;48.118;11.600;2022-08-21T05:16:44;4.27;;;3.17;;
1829;SDS011;914;48.118;11.600;2022-08-21T05:19:10;3.60;;;3.30;;
1829;SDS011;914;48.118;11.600;2022-08-21T05:21:37;3.53;;;2.90;;
1829;SDS011;914;48.118;11.600;2022-08-21T05:24:05;3.30;;;2.97;;
1829;SDS011;914;48.118;11.600;2022-08-21T05:26:31;4.23;;;2.90;;
1829;SDS011;914;48.118;11.600;2022-08-21T05:28:57;4.17;;;3.13;;
1829;SDS011;914;48.118;11.600;2022-08-21T05:31:23;2.70;;;2.50;;
1829;SDS011;914;48.118;11.600;2022-08-21T05:33:49;2.67;;;2.47;;
1829;SDS011;914;48.118;11.600;2022-08-21T05:36:16;3.10;;;2.90;;
1829;SDS011;914;48.118;11.600;2022-08-21T05:38:42;2.83;;;2.63;;
1829;SDS011;914;48.118;11.600;2022-08-21T05:41:08;2.90;;;2.70;;
1829;SDS011;914;48.118;11.600;2022-08-21T05:43:34;3.03;;;2.73;;
1829;SDS011;914;48.118;11.600;2022-08-21T05:46:02;5.00;;;2.50;;
1829;SDS011;914;48.118;11.600;2022-08-21T05:48:29;2.60;;;2.40;;
1829;SDS011;914;48.118;11.600;2022-08-21T05:50:56;3.50;;;2.40;;
1829;SDS011;914;48.118;11.600;2022-08-21T05:53:22;2.97;;;2.70;;
1829;SDS011;914;48.118;11.600;2022-08-21T05:55:49;2.20;;;1.90;;
1829;SDS011;914;48.118;11.600;2022-08-21T05:58:17;3.00;;;2.80;;
1829;SDS011;914;48.118;11.600;2022-08-21T06:00:45;3.77;;;2.50;;
1829;SDS011;914;48.118;11.600;2022-08-21T06:03:17;2.50;;;2.30;;
1829;SDS011;914;48.118;11.600;2022-08-21T06:05:46;2.40;;;2.20;;
1829;SDS011;914;48.118;11.600;2022-08-21T06:08:13;2.47;;;2.23;;
1829;SDS011;914;48.118;11.600;2022-08-21T06:10:41;2.40;;;2.30;;
1829;SDS011;914;48.118;11.600;2022-08-21T06:13:07;3.03;;;2.37;;
1829;SDS011;914;48.118;11.600;2022-08-21T06:15:33;3.20;;;2.10;;
1829;SDS011;914;48.118;11.600;2022-08-21T06:17:59;6.47;;;2.53;;
1829;SDS011;914;48.118;11.600;2022-08-21T06:20:24;2.73;;;1.90;;
1829;SDS011;914;48.118;11.600;2022-08-21T06:22:50;3.00;;;2.43;;
1829;SDS011;914;48.118;11.600;2022-08-21T06:25:16;3.27;;;2.30;;
1829;SDS011;914;48.118;11.600;2022-08-21T06:27:42;2.10;;;2.00;;
1829;SDS011;914;48.118;11.600;2022-08-21T06:30:08;2.40;;;2.20;;
1829;SDS011;914;48.118;11.600;2022-08-21T06:32:34;3.47;;;2.10;;
1829;SDS011;914;48.118;11.600;2022-08-21T06:35:01;2.70;;;2.30;;
1829;SDS011;914;48.118;11.600;2022-08-21T06:37:27;2.93;;;2.60;;
1829;SDS011;914;48.118;11.600;2022-08-21T06:39:54;2.60;;;2.40;;
1829;SDS011;914;48.118;11.600;2022-08-21T06:42:19;3.07;;;2.10;;
1829;SDS011;914;48.118;11.600;2022-08-21T06:44:45;2.30;;;2.10;;
1829;SDS011;914;48.118;11.600;2022-08-21T06:47:12;3.40;;;2.23;;
1829;SDS011;914;48.118;11.600;2022-08-21T06:49:38;3.23;;;2.60;;
1829;SDS011;914;48.118;11.600;2022-08-21T06:52:08;2.60;;;2.20;;
1829;SDS011;914;48.118;11.600;2022-08-21T06:54:35;6.43;;;2.40;;
1829;SDS011;914;48.118;11.600;2022-08-21T06:57:01;3.07;;;2.20;;
1829;SDS011;914;48.118;11.600;2022-08-21T06:59:26;2.57;;;2.37;;
1829;SDS011;914;48.118;11.600;2022-08-21T07:01:52;3.03;;;2.20;;
1829;SDS011;914;48.118;11.600;2022-08-21T07:04:18;7.60;;;2.20;;
1829;SDS011;914;48.118;11.600;2022-08-21T07:06:44;3.60;;;2.27;;
1829;SDS011;914;48.118;11.600;2022-08-21T07:09:10;2.40;;;2.20;;
1829;SDS011;914;48.118;11.600;2022-08-21T07:11:36;3.50;;;1.87;;
1829;SDS011;914;48.118;11.600;2022-08-21T07:14:02;1.83;;;1.70;;
1829;SDS011;914;48.118;11.600;2022-08-21T07:16:29;1.80;;;1.70;;
1829;SDS011;914;48.118;11.600;2022-08-21T07:18:54;4.40;;;1.97;;
1829;SDS011;914;48.118;11.600;2022-08-21T07:21:20;2.40;;;2.00;;
1829;SDS011;914;48.118;11.600;2022-08-21T07:23:47;2.22;;;1.80;;
1829;SDS011;914;48.118;11.600;2022-08-21T07:26:15;2.97;;;1.90;;
1829;SDS011;914;48.118;11.600;2022-08-21T07:28:44;2.60;;;2.10;;
1829;SDS011;914;48.118;11.600;2022-08-21T07:31:10;3.47;;;2.10;;
1829;SDS011;914;48.118;11.600;2022-08-21T07:33:38;2.80;;;2.10;;
1829;SDS011;914;48.118;11.600;2022-08-21T07:36:05;3.37;;;2.10;;
1829;SDS011;914;48.118;11.600;2022-08-21T07:38:31;3.45;;;1.95;;
1829;SDS011;914;48.118;11.600;2022-08-21T07:40:57;2.63;;;2.20;;
1829;SDS011;914;48.118;11.600;2022-08-21T07:43:25;3.88;;;2.03;;
1829;SDS011;914;48.118;11.600;2022-08-21T07:45:51;3.55;;;2.10;;
1829;SDS011;914;48.118;11.600;2022-08-21T07:48:19;4.87;;;2.47;;
1829;SDS011;914;48.118;11.600;2022-08-21T07:50:45;2.67;;;2.47;;
1829;SDS011;914;48.118;11.600;2022-08-21T07:53:11;4.15;;;2.30;;
1829;SDS011;914;48.118;11.600;2022-08-21T07:55:37;2.78;;;2.17;;
1829;SDS011;914;48.118;11.600;2022-08-21T07:58:02;2.35;;;2.05;;
1829;SDS011;914;48.118;11.600;2022-08-21T08:00:29;2.45;;;2.25;;
1829;SDS011;914;48.118;11.600;2022-08-21T08:02:56;4.85;;;2.35;;
1829;SDS011;914;48.118;11.600;2022-08-21T08:05:26;3.80;;;2.78;;
1829;SDS011;914;48.118;11.600;2022-08-21T08:07:54;2.63;;;2.38;;
1829;SDS011;914;48.118;11.600;2022-08-21T08:10:21;5.30;;;2.20;;
1829;SDS011;914;48.118;11.600;2022-08-21T08:12:47;3.88;;;2.28;;
1829;SDS011;914;48.118;11.600;2022-08-21T08:15:18;4.53;;;2.92;;
1829;SDS011;914;48.118;11.600;2022-08-21T08:17:49;2.83;;;2.55;;
1829;SDS011;914;48.118;11.600;2022-08-21T08:20:15;3.58;;;2.85;;
1829;SDS011;914;48.118;11.600;2022-08-21T08:22:43;3.00;;;2.67;;
1829;SDS011;914;48.118;11.600;2022-08-21T08:25:10;5.22;;;2.45;;
1829;SDS011;914;48.118;11.600;2022-08-21T08:27:37;3.30;;;2.90;;
1829;SDS011;914;48.118;11.600;2022-08-21T08:30:04;3.53;;;2.50;;
1829;SDS011;914;48.118;11.600;2022-08-21T08:32:31;3.45;;;2.85;;
1829;SDS011;914;48.118;11.600;2022-08-21T08:34:56;2.95;;;2.53;;
1829;SDS011;914;48.118;11.600;2022-08-21T08:37:22;5.10;;;2.75;;
1829;SDS011;914;48.118;11.600;2022-08-21T08:39:47;3.72;;;2.63;;
1829;SDS011;914;48.118;11.600;2022-08-21T08:42:25;3.72;;;3.15;;
1829;SDS011;914;48.118;11.600;2022-08-21T08:44:57;5.10;;;4.32;;
1829;SDS011;914;48.118;11.600;2022-08-21T08:47:38;4.78;;;2.85;;
1829;SDS011;914;48.118;11.600;2022-08-21T08:52:54;3.30;;;3.00;;
1829;SDS011;914;48.118;11.600;2022-08-21T08:55:26;4.07;;;2.97;;
1829;SDS011;914;48.118;11.600;2022-08-21T08:58:01;4.60;;;2.97;;
1829;SDS011;914;48.118;11.600;2022-08-21T09:00:28;4.75;;;3.00;;
1829;SDS011;914;48.118;11.600;2022-08-21T09:02:57;3.35;;;3.05;;
1829;SDS011;914;48.118;11.600;2022-08-21T09:05:45;3.20;;;2.63;;
1829;SDS011;914;48.118;11.600;2022-08-21T09:08:32;3.28;;;2.90;;
1829;SDS011;914;48.118;11.600;2022-08-21T09:11:04;3.25;;;2.83;;
1829;SDS011;914;48.118;11.600;2022-08-21T09:16:28;2.85;;;2.53;;
1829;SDS011;914;48.118;11.600;2022-08-21T09:21:53;2.63;;;2.42;;
1829;SDS011;914;48.118;11.600;2022-08-21T09:24:35;2.75;;;2.55;;
1829;SDS011;914;48.118;11.600;2022-08-21T09:27:19;4.65;;;3.63;;
1829;SDS011;914;48.118;11.600;2022-08-21T09:29:47;6.10;;;3.10;;
1829;SDS011;914;48.118;11.600;2022-08-21T09:40:44;2.60;;;2.40;;
1829;SDS011;914;48.118;11.600;2022-08-21T09:45:38;2.90;;;2.70;;
1829;SDS011;914;48.118;11.600;2022-08-21T09:50:44;2.65;;;2.45;;
1829;SDS011;914;48.118;11.600;2022-08-21T09:53:20;2.65;;;2.30;;
1829;SDS011;914;48.118;11.600;2022-08-21T09:55:52;3.35;;;2.28;;
1829;SDS011;914;48.118;11.600;2022-08-21T09:58:39;4.82;;;2.53;;
1829;SDS011;914;48.118;11.600;2022-08-21T10:01:06;2.67;;;2.30;;
1829;SDS011;914;48.118;11.600;2022-08-21T10:03:37;4.05;;;2.55;;
1829;SDS011;914;48.118;11.600;2022-08-21T10:06:04;1.95;;;1.75;;
1829;SDS011;914;48.118;11.600;2022-08-21T10:08:34;2.40;;;2.20;;
1829;SDS011;914;48.118;11.600;2022-08-21T10:11:12;4.38;;;2.20;;
1829;SDS011;914;48.118;11.600;2022-08-21T10:13:43;2.83;;;2.58;;
1829;SDS011;914;48.118;11.600;2022-08-21T10:16:41;2.22;;;2.03;;
1829;SDS011;914;48.118;11.600;2022-08-21T10:21:37;2.20;;;1.98;;
1829;SDS011;914;48.118;11.600;2022-08-21T10:24:28;4.63;;;2.20;;
1829;SDS011;914;48.118;11.600;2022-08-21T10:35:09;2.40;;;2.20;;
1829;SDS011;914;48.118;11.600;2022-08-21T10:37:52;2.33;;;2.13;;
1829;SDS011;914;48.118;11.600;2022-08-21T10:40:30;4.22;;;2.08;;
1829;SDS011;914;48.118;11.600;2022-08-21T10:45:48;2.08;;;1.98;;
1829;SDS011;914;48.118;11.600;2022-08-21T10:48:36;2.17;;;1.80;;
1829;SDS011;914;48.118;11.600;2022-08-21T10:51:08;2.28;;;2.10;;
1829;SDS011;914;48.118;11.600;2022-08-21T10:53:50;2.45;;;2.25;;
1829;SDS011;914;48.118;11.600;2022-08-21T10:56:39;2.42;;;2.22;;
1829;SDS011;914;48.118;11.600;2022-08-21T11:04:50;3.10;;;2.10;;
1829;SDS011;914;48.118;11.600;2022-08-21T11:07:31;2.35;;;2.15;;
1829;SDS011;914;48.118;11.600;2022-08-21T11:12:48;2.72;;;2.53;;
1829;SDS011;914;48.118;11.600;2022-08-21T11:18:32;2.80;;;2.25;;
1829;SDS011;914;48.118;11.600;2022-08-21T11:27:01;2.35;;;2.10;;
1829;SDS011;914;48.118;11.600;2022-08-21T11:29:37;3.78;;;2.25;;
1829;SDS011;914;48.118;11.600;2022-08-21T11:32:13;2.35;;;2.03;;
1829;SDS011;914;48.118;11.600;2022-08-21T11:37:36;3.75;;;2.70;;
1829;SDS011;914;48.118;11.600;2022-08-21T11:40:26;2.70;;;2.50;;
1829;SDS011;914;48.118;11.600;2022-08-21T11:45:52;2.72;;;2.20;;
1829;SDS011;914;48.118;11.600;2022-08-21T11:48:35;4.10;;;2.40;;
1829;SDS011;914;48.118;11.600;2022-08-21T11:51:13;3.90;;;2.35;;
1829;SDS011;914;48.118;11.600;2022-08-21T11:53:48;2.17;;;2.08;;
1829;SDS011;914;48.118;11.600;2022-08-21T11:56:28;3.03;;;2.22;;
1829;SDS011;914;48.118;11.600;2022-08-21T11:59:01;2.83;;;1.92;;
1829;SDS011;914;48.118;11.600;2022-08-21T12:01:36;2.00;;;1.90;;
1829;SDS011;914;48.118;11.600;2022-08-21T12:04:10;4.47;;;2.20;;
1829;SDS011;914;48.118;11.600;2022-08-21T12:06:47;3.10;;;2.33;;
1829;SDS011;914;48.118;11.600;2022-08-21T12:11:50;2.10;;;2.00;;
1829;SDS011;914;48.118;11.600;2022-08-21T12:14:47;2.00;;;1.90;;
1829;SDS011;914;48.118;11.600;2022-08-21T12:17:19;2.45;;;1.90;;
1829;SDS011;914;48.118;11.600;2022-08-21T12:19:56;2.25;;;2.13;;
1829;SDS011;914;48.118;11.600;2022-08-21T12:22:34;1.80;;;1.70;;
1829;SDS011;914;48.118;11.600;2022-08-21T12:25:10;2.90;;;2.17;;
1829;SDS011;914;48.118;11.600;2022-08-21T12:27:44;4.38;;;1.83;;
1829;SDS011;914;48.118;11.600;2022-08-21T12:32:58;1.80;;;1.70;;
1829;SDS011;914;48.118;11.600;2022-08-21T12:35:40;2.55;;;1.98;;
1829;SDS011;914;48.118;11.600;2022-08-21T12:40:55;2.70;;;1.73;;
1829;SDS011;914;48.118;11.600;2022-08-21T12:43:32;2.10;;;1.70;;
1829;SDS011;914;48.118;11.600;2022-08-21T12:46:01;2.20;;;2.00;;
1829;SDS011;914;48.118;11.600;2022-08-21T12:51:16;2.30;;;2.10;;
1829;SDS011;914;48.118;11.600;2022-08-21T12:53:55;1.80;;;1.70;;
1829;SDS011;914;48.118;11.600;2022-08-21T12:56:23;2.10;;;1.83;;
1829;SDS011;914;48.118;11.600;2022-08-21T12:58:55;2.13;;;1.80;;
1829;SDS011;914;48.118;11.600;2022-08-21T13:04:02;2.80;;;1.90;;
1829;SDS011;914;48.118;11.600;2022-08-21T13:06:37;3.22;;;1.77;;
1829;SDS011;914;48.118;11.600;2022-08-21T13:09:06;2.92;;;1.90;;
1829;SDS011;914;48.118;11.600;2022-08-21T13:11:35;2.63;;;2.42;;
1829;SDS011;914;48.118;11.600;2022-08-21T13:14:01;2.97;;;1.80;;
1829;SDS011;914;48.118;11.600;2022-08-21T13:16:28;1.83;;;1.73;;
1829;SDS011;914;48.118;11.600;2022-08-21T13:21:20;2.90;;;2.00;;
1829;SDS011;914;48.118;11.600;2022-08-21T13:23:46;2.60;;;1.90;;
1829;SDS011;914;48.118;11.600;2022-08-21T13:26:16;2.10;;;1.95;;
1829;SDS011;914;48.118;11.600;2022-08-21T13:28:46;2.35;;;2.15;;
1829;SDS011;914;48.118;11.600;2022-08-21T13:31:15;2.25;;;2.05;;
1829;SDS011;914;48.118;11.600;2022-08-21T13:33:45;4.30;;;2.33;;
1829;SDS011;914;48.118;11.600;2022-08-21T13:36:17;3.83;;;2.25;;
1829;SDS011;914;48.118;11.600;2022-08-21T13:38:51;2.15;;;1.92;;
1829;SDS011;914;48.118;11.600;2022-08-21T13:41:24;3.22;;;2.05;;
1829;SDS011;914;48.118;11.600;2022-08-21T13:43:58;3.03;;;1.98;;
1829;SDS011;914;48.118;11.600;2022-08-21T13:46:41;2.40;;;2.08;;
1829;SDS011;914;48.118;11.600;2022-08-21T13:49:09;2.58;;;2.05;;
1829;SDS011;914;48.118;11.600;2022-08-21T13:51:35;2.10;;;2.00;;
1829;SDS011;914;48.118;11.600;2022-08-21T13:54:12;3.85;;;2.00;;
1829;SDS011;914;48.118;11.600;2022-08-21T13:56:51;2.78;;;2.10;;
1829;SDS011;914;48.118;11.600;2022-08-21T13:59:31;3.90;;;2.10;;
1829;SDS011;914;48.118;11.600;2022-08-21T14:01:59;1.92;;;1.83;;
1829;SDS011;914;48.118;11.600;2022-08-21T14:04:55;2.95;;;1.95;;
1829;SDS011;914;48.118;11.600;2022-08-21T14:07:30;3.08;;;2.00;;
1829;SDS011;914;48.118;11.600;2022-08-21T14:10:19;2.00;;;1.90;;
1829;SDS011;914;48.118;11.600;2022-08-21T14:12:54;2.35;;;2.15;;
1829;SDS011;914;48.118;11.600;2022-08-21T14:15:23;4.43;;;2.20;;
1829;SDS011;914;48.118;11.600;2022-08-21T14:17:53;2.08;;;1.98;;
1829;SDS011;914;48.118;11.600;2022-08-21T14:20:33;2.25;;;2.03;;
1829;SDS011;914;48.118;11.600;2022-08-21T14:23:00;2.85;;;1.80;;
1829;SDS011;914;48.118;11.600;2022-08-21T14:25:30;9.25;;;1.95;;
1829;SDS011;914;48.118;11.600;2022-08-21T14:28:15;4.88;;;2.03;;
1829;SDS011;914;48.118;11.600;2022-08-21T14:30:48;2.72;;;2.00;;
1829;SDS011;914;48.118;11.600;2022-08-21T14:33:28;2.28;;;2.08;;
1829;SDS011;914;48.118;11.600;2022-08-21T14:35:56;3.75;;;1.75;;
1829;SDS011;914;48.118;11.600;2022-08-21T14:38:23;2.10;;;1.90;;
1829;SDS011;914;48.118;11.600;2022-08-21T14:40:51;2.10;;;1.90;;
1829;SDS011;914;48.118;11.600;2022-08-21T14:43:19;2.30;;;2.10;;
1829;SDS011;914;48.118;11.600;2022-08-21T14:45:45;1.98;;;1.88;;
1829;SDS011;914;48.118;11.600;2022-08-21T14:48:12;2.55;;;2.08;;
1829;SDS011;914;48.118;11.600;2022-08-21T14:50:38;2.70;;;1.90;;
1829;SDS011;914;48.118;11.600;2022-08-21T14:53:04;2.20;;;2.00;;
1829;SDS011;914;48.118;11.600;2022-08-21T14:55:30;2.00;;;1.90;;
1829;SDS011;914;48.118;11.600;2022-08-21T14:58:17;4.15;;;2.20;;
1829;SDS011;914;48.118;11.600;2022-08-21T15:00:43;2.47;;;2.00;;
1829;SDS011;914;48.118;11.600;2022-08-21T15:03:09;2.63;;;1.77;;
1829;SDS011;914;48.118;11.600;2022-08-21T15:05:35;1.90;;;1.80;;
1829;SDS011;914;48.118;11.600;2022-08-21T15:08:00;2.13;;;1.98;;
1829;SDS011;914;48.118;11.600;2022-08-21T15:10:27;2.28;;;2.08;;
1829;SDS011;914;48.118;11.600;2022-08-21T15:12:54;6.30;;;2.90;;
1829;SDS011;914;48.118;11.600;2022-08-21T15:15:20;4.95;;;2.30;;
1829;SDS011;914;48.118;11.600;2022-08-21T15:17:46;2.22;;;2.10;;
1829;SDS011;914;48.118;11.600;2022-08-21T15:20:12;2.95;;;2.33;;
1829;SDS011;914;48.118;11.600;2022-08-21T15:22:39;3.17;;;2.25;;
1829;SDS011;914;48.118;11.600;2022-08-21T15:25:04;3.15;;;2.00;;
1829;SDS011;914;48.118;11.600;2022-08-21T15:27:30;2.25;;;2.15;;
1829;SDS011;914;48.118;11.600;2022-08-21T15:29:57;4.72;;;2.42;;
1829;SDS011;914;48.118;11.600;2022-08-21T15:32:26;3.38;;;2.22;;
1829;SDS011;914;48.118;11.600;2022-08-21T15:34:56;2.67;;;2.47;;
1829;SDS011;914;48.118;11.600;2022-08-21T15:37:23;3.13;;;2.10;;
1829;SDS011;914;48.118;11.600;2022-08-21T15:39:50;2.97;;;2.20;;
1829;SDS011;914;48.118;11.600;2022-08-21T15:42:17;3.05;;;2.30;;
1829;SDS011;914;48.118;11.600;2022-08-21T15:44:44;2.58;;;2.38;;
1829;SDS011;914;48.118;11.600;2022-08-21T15:47:13;3.53;;;2.35;;
1829;SDS011;914;48.118;11.600;2022-08-21T15:49:41;2.80;;;2.28;;
1829;SDS011;914;48.118;11.600;2022-08-21T15:52:10;3.25;;;2.30;;
1829;SDS011;914;48.118;11.600;2022-08-21T15:54:37;7.53;;;2.42;;
1829;SDS011;914;48.118;11.600;2022-08-21T15:57:03;2.53;;;2.28;;
1829;SDS011;914;48.118;11.600;2022-08-21T15:59:28;2.65;;;2.40;;
1829;SDS011;914;48.118;11.600;2022-08-21T16:02:02;4.65;;;2.20;;
1829;SDS011;914;48.118;11.600;2022-08-21T16:04:29;2.42;;;2.22;;
1829;SDS011;914;48.118;11.600;2022-08-21T16:06:55;2.28;;;2.08;;
1829;SDS011;914;48.118;11.600;2022-08-21T16:09:21;3.63;;;2.70;;
1829;SDS011;914;48.118;11.600;2022-08-21T16:11:47;3.40;;;2.55;;
1829;SDS011;914;48.118;11.600;2022-08-21T16:14:14;3.30;;;2.30;;
1829;SDS011;914;48.118;11.600;2022-08-21T16:16:40;2.88;;;2.47;;
1829;SDS011;914;48.118;11.600;2022-08-21T16:19:06;3.20;;;2.60;;
1829;SDS011;914;48.118;11.600;2022-08-21T16:21:34;2.63;;;2.20;;
1829;SDS011;914;48.118;11.600;2022-08-21T16:24:01;4.00;;;2.10;;
1829;SDS011;914;48.118;11.600;2022-08-21T16:26:27;3.92;;;2.40;;
1829;SDS011;914;48.118;11.600;2022-08-21T16:28:54;3.15;;;2.10;;
1829;SDS011;914;48.118;11.600;2022-08-21T16:31:22;4.07;;;2.40;;
1829;SDS011;914;48.118;11.600;2022-08-21T16:33:50;2.75;;;2.38;;
1829;SDS011;914;48.118;11.600;2022-08-21T16:36:17;3.33;;;2.40;;
1829;SDS011;914;48.118;11.600;2022-08-21T16:38:45;4.43;;;2.30;;
1829;SDS011;914;48.118;11.600;2022-08-21T16:41:13;2.40;;;2.20;;
1829;SDS011;914;48.118;11.600;2022-08-21T16:43:42;3.15;;;2.13;;
1829;SDS011;914;48.118;11.600;2022-08-21T16:46:09;2.50;;;2.30;;
1829;SDS011;914;48.118;11.600;2022-08-21T16:48:38;2.78;;;2.10;;